createdAt,value
2023-04-19T00:00:09.062Z,628.00
2023-04-19T00:01:09.144Z,627.00
2023-04-19T00:02:09.316Z,627.00
2023-04-19T00:03:09.467Z,629.00
2023-04-19T00:04:09.546Z,629.00
2023-04-19T00:05:09.393Z,631.00
2023-04-19T00:06:09.432Z,634.00
2023-04-19T00:07:09.501Z,633.00
2023-04-19T00:08:09.552Z,634.00
2023-04-19T00:09:09.593Z,633.00
2023-04-19T00:10:09.660Z,632.00
2023-04-19T00:11:09.732Z,633.00
2023-04-19T00:12:09.754Z,632.00
2023-04-19T00:13:09.822Z,633.00
2023-04-19T00:14:09.859Z,635.00
2023-04-19T00:15:09.858Z,634.00
2023-04-19T00:16:09.942Z,633.00
2023-04-19T00:17:10.006Z,632.00
2023-04-19T00:18:10.080Z,633.00
2023-04-19T00:19:10.083Z,633.00
2023-04-19T00:20:10.135Z,633.00
2023-04-19T00:21:10.275Z,635.00
2023-04-19T00:22:10.239Z,636.00
2023-04-19T00:23:10.314Z,635.00
2023-04-19T00:24:10.330Z,636.00
2023-04-19T00:25:10.392Z,638.00
2023-04-19T00:26:10.430Z,635.00
2023-04-19T00:27:10.502Z,638.00
2023-04-19T00:28:10.572Z,635.00
2023-04-19T00:29:10.579Z,636.00
2023-04-19T00:30:10.601Z,635.00
2023-04-19T00:31:10.703Z,635.00
2023-04-19T00:32:10.661Z,634.00
2023-04-19T00:33:10.746Z,632.00
2023-04-19T00:34:10.756Z,631.00
2023-04-19T00:35:10.746Z,632.00
2023-04-19T00:36:10.804Z,630.00
2023-04-19T00:37:10.827Z,631.00
2023-04-19T00:38:10.859Z,632.00
2023-04-19T00:39:10.917Z,633.00
2023-04-19T00:40:10.925Z,636.00
2023-04-19T00:41:11.000Z,634.00
2023-04-19T00:42:11.065Z,635.00
2023-04-19T00:43:11.103Z,631.00
2023-04-19T00:44:11.142Z,629.00
2023-04-19T00:45:11.165Z,631.00
2023-04-19T00:46:11.255Z,629.00
2023-04-19T00:47:11.272Z,627.00
2023-04-19T00:48:11.335Z,625.00
2023-04-19T00:49:11.358Z,624.00
2023-04-19T00:50:11.369Z,625.00
2023-04-19T00:51:11.433Z,625.00
2023-04-19T00:52:11.477Z,626.00
2023-04-19T00:53:11.513Z,624.00
2023-04-19T00:54:11.503Z,624.00
2023-04-19T00:55:11.523Z,625.00
2023-04-19T00:56:11.583Z,627.00
2023-04-19T00:57:11.631Z,627.00
2023-04-19T00:58:11.691Z,626.00
2023-04-19T00:59:11.703Z,627.00
2023-04-19T01:00:11.713Z,627.00
2023-04-19T01:01:11.823Z,626.00
2023-04-19T01:02:11.889Z,624.00
2023-04-19T01:03:12.102Z,623.00
2023-04-19T01:04:11.961Z,622.00
2023-04-19T01:05:12.006Z,619.00
2023-04-19T01:06:12.038Z,622.00
2023-04-19T01:07:12.082Z,621.00
2023-04-19T01:08:12.115Z,622.00
2023-04-19T01:09:12.172Z,619.00
2023-04-19T01:10:12.175Z,621.00
2023-04-19T01:11:12.214Z,618.00
2023-04-19T01:12:12.288Z,620.00
2023-04-19T01:13:12.292Z,619.00
2023-04-19T01:14:12.341Z,617.00
2023-04-19T01:15:12.344Z,619.00
2023-04-19T01:16:12.372Z,621.00
2023-04-19T01:17:12.350Z,622.00
2023-04-19T01:18:12.407Z,624.00
2023-04-19T01:19:12.431Z,625.00
2023-04-19T01:20:12.458Z,624.00
2023-04-19T01:21:12.442Z,626.00
2023-04-19T01:22:12.467Z,623.00
2023-04-19T01:23:12.489Z,620.00
2023-04-19T01:24:12.587Z,618.00
2023-04-19T01:25:12.560Z,617.00
2023-04-19T01:26:12.555Z,618.00
2023-04-19T01:27:12.595Z,619.00
2023-04-19T01:28:12.636Z,619.00
2023-04-19T01:29:12.702Z,615.00
2023-04-19T01:30:12.716Z,612.00
2023-04-19T01:31:12.796Z,612.00
2023-04-19T01:32:12.761Z,609.00
2023-04-19T01:33:12.778Z,607.00
2023-04-19T01:34:12.954Z,607.00
2023-04-19T01:35:12.810Z,608.00
2023-04-19T01:36:12.801Z,609.00
2023-04-19T01:37:12.859Z,609.00
2023-04-19T01:38:12.838Z,606.00
2023-04-19T01:39:12.848Z,606.00
2023-04-19T01:40:12.860Z,603.00
2023-04-19T01:41:12.894Z,604.00
2023-04-19T01:42:12.907Z,606.00
2023-04-19T01:43:13.538Z,606.00
2023-04-19T01:44:13.173Z,608.00
2023-04-19T01:45:12.962Z,607.00
2023-04-19T01:46:12.958Z,605.00
2023-04-19T01:47:13.125Z,604.00
2023-04-19T01:48:13.013Z,604.00
2023-04-19T01:49:13.024Z,603.00
2023-04-19T01:50:13.010Z,601.00
2023-04-19T01:51:13.023Z,601.00
2023-04-19T01:52:13.072Z,603.00
2023-04-19T01:53:13.097Z,601.00
2023-04-19T01:54:13.269Z,602.00
2023-04-19T01:55:13.150Z,600.00
2023-04-19T01:56:13.112Z,602.00
2023-04-19T01:57:13.115Z,602.00
2023-04-19T01:58:13.106Z,601.00
2023-04-19T01:59:13.133Z,601.00
2023-04-19T02:00:13.134Z,600.00
2023-04-19T02:01:13.178Z,600.00
2023-04-19T02:02:13.243Z,601.00
2023-04-19T02:03:13.252Z,600.00
2023-04-19T02:04:13.485Z,598.00
2023-04-19T02:05:13.218Z,598.00
2023-04-19T02:06:13.217Z,597.00
2023-04-19T02:07:13.260Z,598.00
2023-04-19T02:08:13.228Z,599.00
2023-04-19T02:09:13.249Z,599.00
2023-04-19T02:10:13.250Z,598.00
2023-04-19T02:11:13.286Z,598.00
2023-04-19T02:12:13.255Z,600.00
2023-04-19T02:13:13.276Z,600.00
2023-04-19T02:14:13.457Z,598.00
2023-04-19T02:15:13.322Z,602.00
2023-04-19T02:16:13.427Z,603.00
2023-04-19T02:17:13.403Z,605.00
2023-04-19T02:18:14.024Z,606.00
2023-04-19T02:19:13.378Z,603.00
2023-04-19T02:20:13.386Z,601.00
2023-04-19T02:21:13.420Z,601.00
2023-04-19T02:22:13.424Z,599.00
2023-04-19T02:23:13.449Z,599.00
2023-04-19T02:24:13.706Z,599.00
2023-04-19T02:25:13.453Z,597.00
2023-04-19T02:26:13.459Z,593.00
2023-04-19T02:27:13.460Z,595.00
2023-04-19T02:28:13.463Z,595.00
2023-04-19T02:29:13.509Z,595.00
2023-04-19T02:30:13.515Z,598.00
2023-04-19T02:31:13.582Z,599.00
2023-04-19T02:32:13.568Z,600.00
2023-04-19T02:33:13.538Z,599.00
2023-04-19T02:34:13.761Z,597.00
2023-04-19T02:35:13.593Z,599.00
2023-04-19T02:36:13.655Z,595.00
2023-04-19T02:37:13.544Z,592.00
2023-04-19T02:38:13.556Z,590.00
2023-04-19T02:39:13.583Z,588.00
2023-04-19T02:40:13.623Z,589.00
2023-04-19T02:41:13.592Z,588.00
2023-04-19T02:42:13.601Z,589.00
2023-04-19T02:43:13.585Z,588.00
2023-04-19T02:44:13.742Z,590.00
2023-04-19T02:45:13.597Z,591.00
2023-04-19T02:46:13.635Z,592.00
2023-04-19T02:47:13.642Z,593.00
2023-04-19T02:48:13.725Z,590.00
2023-04-19T02:49:13.732Z,590.00
2023-04-19T02:50:13.697Z,591.00
2023-04-19T02:51:13.735Z,594.00
2023-04-19T02:52:13.732Z,596.00
2023-04-19T02:53:13.701Z,594.00
2023-04-19T02:54:13.854Z,591.00
2023-04-19T02:55:13.735Z,588.00
2023-04-19T02:56:13.736Z,586.00
2023-04-19T02:57:13.773Z,586.00
2023-04-19T02:58:13.740Z,591.00
2023-04-19T02:59:13.759Z,593.00
2023-04-19T03:00:13.801Z,592.00
2023-04-19T03:01:13.813Z,592.00
2023-04-19T03:02:13.759Z,590.00
2023-04-19T03:03:13.825Z,590.00
2023-04-19T03:04:13.981Z,591.00
2023-04-19T03:05:13.765Z,591.00
2023-04-19T03:06:13.767Z,592.00
2023-04-19T03:07:13.812Z,593.00
2023-04-19T03:08:13.822Z,591.00
2023-04-19T03:09:13.801Z,588.00
2023-04-19T03:10:13.807Z,588.00
2023-04-19T03:11:13.774Z,588.00
2023-04-19T03:12:13.776Z,588.00
2023-04-19T03:13:13.769Z,588.00
2023-04-19T03:14:13.911Z,585.00
2023-04-19T03:15:13.774Z,584.00
2023-04-19T03:16:13.872Z,582.00
2023-04-19T03:17:13.815Z,585.00
2023-04-19T03:18:13.802Z,586.00
2023-04-19T03:19:13.800Z,587.00
2023-04-19T03:20:13.835Z,585.00
2023-04-19T03:21:13.805Z,585.00
2023-04-19T03:22:13.796Z,584.00
2023-04-19T03:23:13.828Z,583.00
2023-04-19T03:24:13.980Z,583.00
2023-04-19T03:25:13.826Z,582.00
2023-04-19T03:26:13.846Z,581.00
2023-04-19T03:27:13.806Z,579.00
2023-04-19T03:28:13.804Z,579.00
2023-04-19T03:29:13.819Z,579.00
2023-04-19T03:30:13.849Z,579.00
2023-04-19T03:31:13.948Z,579.00
2023-04-19T03:32:13.857Z,575.00
2023-04-19T03:33:13.899Z,574.00
2023-04-19T03:34:14.090Z,575.00
2023-04-19T03:35:13.903Z,575.00
2023-04-19T03:36:13.894Z,573.00
2023-04-19T03:37:13.944Z,575.00
2023-04-19T03:38:13.974Z,573.00
2023-04-19T03:39:13.989Z,572.00
2023-04-19T03:40:13.947Z,572.00
2023-04-19T03:41:13.991Z,571.00
2023-04-19T03:42:13.957Z,572.00
2023-04-19T03:43:13.982Z,572.00
2023-04-19T03:45:13.983Z,570.00
2023-04-19T03:46:14.027Z,571.00
2023-04-19T03:47:14.008Z,572.00
2023-04-19T03:48:13.981Z,573.00
2023-04-19T03:49:14.013Z,575.00
2023-04-19T03:50:13.987Z,575.00
2023-04-19T03:51:14.015Z,573.00
2023-04-19T03:52:14.005Z,571.00
2023-04-19T03:53:14.014Z,571.00
2023-04-19T03:54:14.269Z,570.00
2023-04-19T03:55:14.062Z,567.00
2023-04-19T03:56:14.042Z,568.00
2023-04-19T03:57:14.034Z,567.00
2023-04-19T03:58:14.043Z,566.00
2023-04-19T03:59:14.011Z,569.00
2023-04-19T04:00:14.040Z,570.00
2023-04-19T04:01:14.004Z,570.00
2023-04-19T04:02:14.087Z,571.00
2023-04-19T04:03:14.216Z,572.00
2023-04-19T04:04:14.450Z,573.00
2023-04-19T04:05:14.117Z,574.00
2023-04-19T04:06:14.007Z,571.00
2023-04-19T04:07:14.082Z,569.00
2023-04-19T04:08:14.003Z,568.00
2023-04-19T04:09:14.004Z,571.00
2023-04-19T04:10:13.986Z,573.00
2023-04-19T04:11:13.996Z,572.00
2023-04-19T04:12:14.009Z,573.00
2023-04-19T04:13:14.044Z,574.00
2023-04-19T04:14:14.222Z,571.00
2023-04-19T04:15:14.019Z,569.00
2023-04-19T04:16:14.002Z,569.00
2023-04-19T04:17:14.011Z,570.00
2023-04-19T04:18:14.006Z,569.00
2023-04-19T04:19:14.000Z,568.00
2023-04-19T04:20:13.989Z,566.00
2023-04-19T04:21:14.018Z,565.00
2023-04-19T04:22:13.980Z,564.00
2023-04-19T04:23:13.987Z,561.00
2023-04-19T04:24:14.200Z,562.00
2023-04-19T04:25:13.983Z,560.00
2023-04-19T04:26:14.082Z,562.00
2023-04-19T04:27:14.070Z,561.00
2023-04-19T04:28:14.034Z,560.00
2023-04-19T04:29:13.981Z,562.00
2023-04-19T04:30:14.038Z,561.00
2023-04-19T04:31:14.035Z,561.00
2023-04-19T04:32:14.020Z,560.00
2023-04-19T04:33:14.001Z,561.00
2023-04-19T04:34:14.162Z,561.00
2023-04-19T04:35:14.061Z,563.00
2023-04-19T04:36:14.007Z,564.00
2023-04-19T04:37:14.010Z,563.00
2023-04-19T04:38:23.581Z,563.00
2023-04-19T04:39:14.985Z,563.00
2023-04-19T04:40:13.996Z,560.00
2023-04-19T04:41:14.003Z,558.00
2023-04-19T04:42:13.989Z,554.00
2023-04-19T04:43:13.946Z,551.00
2023-04-19T04:44:14.172Z,553.00
2023-04-19T04:45:13.946Z,554.00
2023-04-19T04:46:13.983Z,553.00
2023-04-19T04:47:13.927Z,553.00
2023-04-19T04:48:13.915Z,555.00
2023-04-19T04:49:14.153Z,552.00
2023-04-19T04:50:13.925Z,553.00
2023-04-19T04:51:13.893Z,552.00
2023-04-19T04:52:13.945Z,552.00
2023-04-19T04:53:13.916Z,551.00
2023-04-19T04:54:14.044Z,552.00
2023-04-19T04:55:13.866Z,552.00
2023-04-19T04:56:13.951Z,552.00
2023-04-19T04:57:13.887Z,553.00
2023-04-19T04:58:13.868Z,556.00
2023-04-19T04:59:13.861Z,556.00
2023-04-19T05:00:13.842Z,557.00
2023-04-19T05:01:13.930Z,559.00
2023-04-19T05:02:13.912Z,559.00
2023-04-19T05:03:13.997Z,560.00
2023-04-19T05:04:14.109Z,561.00
2023-04-19T05:05:13.784Z,560.00
2023-04-19T05:06:13.815Z,560.00
2023-04-19T05:07:13.811Z,558.00
2023-04-19T05:08:13.771Z,557.00
2023-04-19T05:09:13.793Z,556.00
2023-04-19T05:10:13.869Z,555.00
2023-04-19T05:11:13.745Z,555.00
2023-04-19T05:12:13.759Z,554.00
2023-04-19T05:13:13.745Z,553.00
2023-04-19T05:14:14.028Z,554.00
2023-04-19T05:15:13.739Z,552.00
2023-04-19T05:16:13.771Z,554.00
2023-04-19T05:17:13.694Z,553.00
2023-04-19T05:18:13.718Z,553.00
2023-04-19T05:19:13.692Z,551.00
2023-04-19T05:20:13.719Z,549.00
2023-04-19T05:21:13.828Z,550.00
2023-04-19T05:22:13.688Z,553.00
2023-04-19T05:23:13.674Z,554.00
2023-04-19T05:24:13.704Z,555.00
2023-04-19T05:25:13.674Z,558.00
2023-04-19T05:26:13.792Z,555.00
2023-04-19T05:27:13.669Z,554.00
2023-04-19T05:28:13.724Z,552.00
2023-04-19T05:29:13.684Z,551.00
2023-04-19T05:30:13.630Z,554.00
2023-04-19T05:31:13.648Z,553.00
2023-04-19T05:32:13.667Z,551.00
2023-04-19T05:33:13.755Z,551.00
2023-04-19T05:34:13.788Z,551.00
2023-04-19T05:35:13.668Z,550.00
2023-04-19T05:36:13.886Z,551.00
2023-04-19T05:37:13.821Z,551.00
2023-04-19T05:38:13.846Z,560.00
2023-04-19T05:39:13.898Z,685.00
2023-04-19T05:40:14.032Z,695.00
2023-04-19T05:41:14.058Z,780.00
2023-04-19T05:42:14.214Z,830.00
2023-04-19T05:43:14.125Z,878.00
2023-04-19T05:44:14.372Z,920.00
2023-04-19T05:45:14.252Z,926.00
2023-04-19T05:46:14.239Z,938.00
2023-04-19T05:47:14.158Z,972.00
2023-04-19T05:48:14.166Z,1000.00
2023-04-19T05:49:14.168Z,1008.00
2023-04-19T05:50:14.216Z,1078.00
2023-04-19T05:51:14.259Z,1077.00
2023-04-19T05:52:14.248Z,1079.00
2023-04-19T05:53:14.286Z,1097.00
2023-04-19T05:54:14.891Z,1134.00
2023-04-19T05:55:14.673Z,1154.00
2023-04-19T05:56:14.271Z,1189.00
2023-04-19T05:57:14.270Z,1225.00
2023-04-19T05:58:14.267Z,1246.00
2023-04-19T05:59:14.699Z,1266.00
2023-04-19T06:00:14.282Z,1301.00
2023-04-19T06:01:14.416Z,1340.00
2023-04-19T06:02:14.549Z,1385.00
2023-04-19T06:03:14.767Z,1418.00
2023-04-19T06:04:14.911Z,1440.00
2023-04-19T06:05:14.684Z,1466.00
2023-04-19T06:06:14.946Z,1504.00
2023-04-19T06:07:30.096Z,1541.00
2023-04-19T06:08:15.721Z,1563.00
2023-04-19T06:09:14.683Z,1584.00
2023-04-19T06:10:15.191Z,1613.00
2023-04-19T06:11:23.350Z,1685.00
2023-04-19T06:12:15.752Z,1699.00
2023-04-19T06:13:14.705Z,1712.00
2023-04-19T06:14:15.075Z,1766.00
2023-04-19T06:15:14.672Z,1778.00
2023-04-19T06:16:14.705Z,1787.00
2023-04-19T06:17:14.623Z,1806.00
2023-04-19T06:18:19.759Z,1860.00
2023-04-19T06:19:15.606Z,1874.00
2023-04-19T06:20:14.602Z,1885.00
2023-04-19T06:21:14.631Z,1900.00
2023-04-19T06:22:14.607Z,1913.00
2023-04-19T06:23:14.576Z,1951.00
2023-04-19T06:24:14.730Z,1969.00
2023-04-19T06:25:14.604Z,1991.00
2023-04-19T06:26:14.561Z,2047.00
2023-04-19T06:27:14.558Z,2060.00
2023-04-19T06:28:14.531Z,2072.00
2023-04-19T06:29:14.644Z,2091.00
2023-04-19T06:30:14.527Z,2134.00
2023-04-19T06:31:14.567Z,2148.00
2023-04-19T06:32:14.549Z,2166.00
2023-04-19T06:33:14.522Z,1506.00
2023-04-19T06:34:14.511Z,1108.00
2023-04-19T06:35:14.545Z,1063.00
2023-04-19T06:36:14.539Z,961.00
2023-04-19T06:37:14.813Z,944.00
2023-04-19T06:38:14.633Z,939.00
2023-04-19T06:39:14.711Z,938.00
2023-04-19T06:40:14.779Z,937.00
2023-04-19T06:41:14.842Z,952.00
2023-04-19T06:42:14.973Z,966.00
2023-04-19T06:43:14.933Z,1023.00
2023-04-19T06:44:15.488Z,1027.00
2023-04-19T06:45:15.045Z,878.00
2023-04-19T06:46:15.102Z,821.00
2023-04-19T06:47:15.062Z,812.00
2023-04-19T06:48:15.070Z,808.00
2023-04-19T06:49:15.106Z,795.00
2023-04-19T06:50:15.140Z,761.00
2023-04-19T06:51:15.082Z,754.00
2023-04-19T06:52:15.112Z,742.00
2023-04-19T06:53:15.125Z,730.00
2023-04-19T06:54:15.179Z,720.00
2023-04-19T06:55:15.150Z,712.00
2023-04-19T06:56:15.168Z,713.00
2023-04-19T06:57:15.165Z,701.00
2023-04-19T06:58:15.189Z,693.00
2023-04-19T06:59:15.200Z,778.00
2023-04-19T07:00:15.261Z,809.00
2023-04-19T07:01:15.219Z,821.00
2023-04-19T07:02:15.369Z,827.00
2023-04-19T07:03:15.351Z,834.00
2023-04-19T07:04:15.865Z,844.00
2023-04-19T07:05:15.249Z,849.00
2023-04-19T07:06:15.253Z,855.00
2023-04-19T07:07:15.277Z,866.00
2023-04-19T07:08:15.240Z,909.00
2023-04-19T07:09:15.263Z,894.00
2023-04-19T07:10:15.294Z,893.00
2023-04-19T07:11:15.310Z,896.00
2023-04-19T07:12:15.365Z,904.00
2023-04-19T07:13:15.377Z,917.00
2023-04-19T07:14:15.767Z,920.00
2023-04-19T07:15:15.469Z,918.00
2023-04-19T07:16:15.682Z,849.00
2023-04-19T07:17:15.524Z,812.00
2023-04-19T07:18:15.530Z,855.00
2023-04-19T07:19:15.655Z,865.00
2023-04-19T07:20:15.557Z,836.00
2023-04-19T07:21:15.521Z,834.00
2023-04-19T07:22:15.566Z,815.00
2023-04-19T07:23:15.519Z,818.00
2023-04-19T07:24:15.835Z,807.00
2023-04-19T07:25:15.591Z,737.00
2023-04-19T07:26:15.574Z,797.00
2023-04-19T07:27:15.736Z,780.00
2023-04-19T07:28:15.626Z,765.00
2023-04-19T07:29:15.618Z,765.00
2023-04-19T07:30:15.651Z,767.00
2023-04-19T07:31:15.672Z,765.00
2023-04-19T07:32:15.628Z,786.00
2023-04-19T07:33:15.675Z,798.00
2023-04-19T07:34:15.811Z,1000.00
2023-04-19T07:35:15.703Z,980.00
2023-04-19T07:36:15.647Z,1015.00
2023-04-19T07:37:15.678Z,1090.00
2023-04-19T07:38:15.667Z,1111.00
2023-04-19T07:39:16.713Z,1109.00
2023-04-19T07:40:16.247Z,975.00
2023-04-19T07:41:15.694Z,960.00
2023-04-19T07:42:15.715Z,974.00
2023-04-19T07:43:15.733Z,945.00
2023-04-19T07:44:15.856Z,902.00
2023-04-19T07:45:16.190Z,889.00
2023-04-19T07:46:15.761Z,903.00
2023-04-19T07:47:15.708Z,930.00
2023-04-19T07:48:15.902Z,975.00
2023-04-19T07:49:15.733Z,1007.00
2023-04-19T07:50:16.183Z,1056.00
2023-04-19T07:51:15.781Z,1080.00
2023-04-19T07:52:15.808Z,1137.00
2023-04-19T07:53:15.863Z,1159.00
2023-04-19T07:54:16.043Z,1177.00
2023-04-19T07:55:16.168Z,1219.00
2023-04-19T07:56:15.999Z,1259.00
2023-04-19T07:57:16.043Z,1278.00
2023-04-19T07:58:16.129Z,1345.00
2023-04-19T07:59:16.163Z,1368.00
2023-04-19T08:00:16.202Z,1379.00
2023-04-19T08:01:16.253Z,1427.00
2023-04-19T08:02:16.321Z,1433.00
2023-04-19T08:03:16.527Z,1460.00
2023-04-19T08:04:16.914Z,1484.00
2023-04-19T08:05:16.441Z,1488.00
2023-04-19T08:06:16.360Z,1488.00
2023-04-19T08:07:16.352Z,1494.00
2023-04-19T08:08:16.379Z,1499.00
2023-04-19T08:09:16.414Z,1510.00
2023-04-19T08:10:16.414Z,1549.00
2023-04-19T08:11:16.513Z,1579.00
2023-04-19T08:12:30.299Z,1612.00
2023-04-19T08:13:17.438Z,1640.00
2023-04-19T08:14:28.357Z,1675.00
2023-04-19T08:16:03.031Z,1691.00
2023-04-19T08:16:40.046Z,1712.00
2023-04-19T08:17:24.332Z,1785.00
2023-04-19T08:18:17.410Z,1806.00
2023-04-19T08:19:16.430Z,1820.00
2023-04-19T08:20:16.680Z,1825.00
2023-04-19T08:21:16.424Z,1841.00
2023-04-19T08:22:16.374Z,1856.00
2023-04-19T08:23:24.098Z,1859.00
2023-04-19T08:24:17.639Z,1869.00
2023-04-19T08:25:16.378Z,1849.00
2023-04-19T08:26:16.341Z,1847.00
2023-04-19T08:27:16.432Z,1781.00
2023-04-19T08:28:16.388Z,1734.00
2023-04-19T08:29:16.704Z,1737.00
2023-04-19T08:30:16.714Z,1744.00
2023-04-19T08:31:16.285Z,1749.00
2023-04-19T08:32:16.381Z,1749.00
2023-04-19T08:33:16.359Z,1749.00
2023-04-19T08:34:16.272Z,1748.00
2023-04-19T08:35:16.295Z,1743.00
2023-04-19T08:36:22.049Z,1739.00
2023-04-19T08:37:17.291Z,1733.00
2023-04-19T08:38:16.281Z,1733.00
2023-04-19T08:39:29.219Z,1727.00
2023-04-19T08:40:17.692Z,1717.00
2023-04-19T08:41:16.224Z,1706.00
2023-04-19T08:43:16.203Z,1696.00
2023-04-19T08:44:19.838Z,1715.00
2023-04-19T08:45:27.687Z,1770.00
2023-04-19T08:46:17.222Z,1818.00
2023-04-19T08:47:27.046Z,1835.00
2023-04-19T08:48:17.316Z,1839.00
2023-04-19T08:49:16.443Z,1839.00
2023-04-19T08:50:28.904Z,1843.00
2023-04-19T08:51:17.131Z,1851.00
2023-04-19T08:52:16.172Z,1852.00
2023-04-19T08:53:24.789Z,1854.00
2023-04-19T08:54:17.175Z,1855.00
2023-04-19T08:55:16.137Z,1851.00
2023-04-19T08:56:24.365Z,1847.00
2023-04-19T08:57:17.082Z,1835.00
2023-04-19T08:58:28.542Z,1819.00
2023-04-19T08:59:18.744Z,1809.00
2023-04-19T09:00:16.196Z,1797.00
2023-04-19T09:01:26.783Z,1787.00
2023-04-19T09:02:17.173Z,1788.00
2023-04-19T09:03:16.253Z,1787.00
2023-04-19T09:05:16.281Z,1785.00
2023-04-19T09:06:16.290Z,1785.00
2023-04-19T09:07:16.037Z,1777.00
2023-04-19T09:08:16.109Z,1771.00
2023-04-19T09:09:33.255Z,1769.00
2023-04-19T09:10:17.157Z,1761.00
2023-04-19T09:11:16.133Z,1751.00
2023-04-19T09:12:16.123Z,1743.00
2023-04-19T09:13:16.178Z,1734.00
2023-04-19T09:14:16.106Z,1727.00
2023-04-19T09:15:16.076Z,1721.00
2023-04-19T09:16:16.119Z,1722.00
2023-04-19T09:17:16.083Z,1719.00
2023-04-19T09:18:16.126Z,1718.00
2023-04-19T09:19:24.330Z,1721.00
2023-04-19T09:20:17.279Z,1638.00
2023-04-19T09:21:16.174Z,1602.00
2023-04-19T09:22:16.152Z,1410.00
2023-04-19T09:23:16.109Z,1345.00
2023-04-19T09:24:16.321Z,1260.00
2023-04-19T09:25:39.111Z,1255.00
2023-04-19T09:26:23.542Z,1144.00
2023-04-19T09:27:17.061Z,1164.00
2023-04-19T09:28:16.053Z,1209.00
2023-04-19T09:29:16.241Z,1219.00
2023-04-19T09:30:27.889Z,1219.00
2023-04-19T09:32:17.089Z,1234.00
2023-04-19T09:33:16.169Z,1230.00
2023-04-19T09:34:16.029Z,1205.00
2023-04-19T09:35:16.221Z,1181.00
2023-04-19T09:36:16.029Z,1249.00
2023-04-19T09:37:28.073Z,1256.00
2023-04-19T09:38:16.994Z,1264.00
2023-04-19T09:39:16.273Z,1374.00
2023-04-19T09:40:16.009Z,1382.00
2023-04-19T09:41:15.969Z,1376.00
2023-04-19T09:42:20.735Z,1378.00
2023-04-19T09:43:45.262Z,1365.00
2023-04-19T09:46:16.839Z,1409.00
2023-04-19T09:47:15.928Z,1341.00
2023-04-19T09:48:15.974Z,1314.00
2023-04-19T09:49:22.999Z,1385.00
2023-04-19T09:50:24.005Z,1378.00
2023-04-19T09:51:17.229Z,1302.00
2023-04-19T09:52:15.916Z,1322.00
2023-04-19T09:53:15.892Z,1301.00
2023-04-19T09:54:15.957Z,1270.00
2023-04-19T09:55:26.709Z,1248.00
2023-04-19T09:56:17.220Z,1312.00
2023-04-19T09:57:15.853Z,1330.00
2023-04-19T09:58:15.918Z,1322.00
2023-04-19T09:59:20.850Z,1344.00
2023-04-19T10:00:17.434Z,1392.00
2023-04-19T10:01:17.033Z,1348.00
2023-04-19T10:02:15.889Z,1337.00
2023-04-19T10:03:15.930Z,1310.00
2023-04-19T10:04:26.218Z,1411.00
2023-04-19T10:05:21.211Z,1405.00
2023-04-19T10:08:15.832Z,1342.00
2023-04-19T10:09:16.004Z,1355.00
2023-04-19T10:10:20.475Z,1369.00
2023-04-19T10:11:16.761Z,1358.00
2023-04-19T10:12:39.042Z,1380.00
2023-04-19T10:13:20.745Z,1387.00
2023-04-19T10:14:16.730Z,1394.00
2023-04-19T10:15:15.755Z,1392.00
2023-04-19T10:16:20.049Z,1393.00
2023-04-19T10:17:15.772Z,1382.00
2023-04-19T10:18:15.680Z,1335.00
2023-04-19T10:19:16.025Z,1410.00
2023-04-19T10:20:15.772Z,1665.00
2023-04-19T10:21:15.675Z,1522.00
2023-04-19T10:22:15.693Z,1180.00
2023-04-19T10:23:15.654Z,1177.00
2023-04-19T10:24:15.723Z,1269.00
2023-04-19T10:25:15.734Z,1273.00
2023-04-19T10:26:16.294Z,1263.00
2023-04-19T10:27:15.807Z,1261.00
2023-04-19T10:28:15.867Z,1278.00
2023-04-19T10:29:16.085Z,1291.00
2023-04-19T10:30:15.964Z,1289.00
2023-04-19T10:31:16.412Z,1288.00
2023-04-19T10:32:16.059Z,1283.00
2023-04-19T10:33:16.084Z,1285.00
2023-04-19T10:34:16.186Z,1286.00
2023-04-19T10:35:16.169Z,1284.00
2023-04-19T10:36:16.319Z,1285.00
2023-04-19T10:37:16.280Z,1286.00
2023-04-19T10:38:16.412Z,1280.00
2023-04-19T10:39:16.510Z,1280.00
2023-04-19T10:40:16.479Z,1279.00
2023-04-19T10:41:18.264Z,1283.00
2023-04-19T10:42:16.510Z,1282.00
2023-04-19T10:43:16.573Z,1284.00
2023-04-19T10:44:16.752Z,1281.00
2023-04-19T10:45:16.659Z,1280.00
2023-04-19T10:46:16.784Z,1276.00
2023-04-19T10:47:16.812Z,1276.00
2023-04-19T10:48:16.801Z,1276.00
2023-04-19T10:49:17.110Z,1275.00
2023-04-19T10:50:16.907Z,1274.00
2023-04-19T10:51:16.944Z,1273.00
2023-04-19T10:52:17.003Z,1271.00
2023-04-19T10:53:17.062Z,1274.00
2023-04-19T10:54:17.100Z,1273.00
2023-04-19T10:55:17.149Z,1271.00
2023-04-19T10:56:17.257Z,1268.00
2023-04-19T10:57:17.292Z,1270.00
2023-04-19T10:58:17.333Z,1271.00
2023-04-19T10:59:18.411Z,1269.00
2023-04-19T11:00:17.441Z,1268.00
2023-04-19T11:01:17.646Z,1264.00
2023-04-19T11:02:17.647Z,1262.00
2023-04-19T11:03:17.805Z,1261.00
2023-04-19T11:04:17.815Z,1263.00
2023-04-19T11:05:20.198Z,1262.00
2023-04-19T11:06:18.031Z,1264.00
2023-04-19T11:07:18.053Z,1265.00
2023-04-19T11:08:18.123Z,1261.00
2023-04-19T11:09:18.189Z,1262.00
2023-04-19T11:10:18.236Z,1260.00
2023-04-19T11:11:18.814Z,1259.00
2023-04-19T11:12:18.378Z,1260.00
2023-04-19T11:13:18.365Z,1262.00
2023-04-19T11:14:18.405Z,1261.00
2023-04-19T11:15:18.447Z,1256.00
2023-04-19T11:16:19.716Z,1255.00
2023-04-19T11:17:18.577Z,1258.00
2023-04-19T11:18:18.515Z,1254.00
2023-04-19T11:19:18.735Z,1248.00
2023-04-19T11:20:18.584Z,1243.00
2023-04-19T11:21:18.539Z,1244.00
2023-04-19T11:22:18.763Z,1244.00
2023-04-19T11:23:18.539Z,1244.00
2023-04-19T11:24:18.607Z,1243.00
2023-04-19T11:25:18.564Z,1239.00
2023-04-19T11:26:18.541Z,1240.00
2023-04-19T11:27:18.598Z,1242.00
2023-04-19T11:28:18.623Z,1243.00
2023-04-19T11:29:18.623Z,1240.00
2023-04-19T11:30:18.584Z,1235.00
2023-04-19T11:31:18.709Z,1237.00
2023-04-19T11:32:18.623Z,1238.00
2023-04-19T11:33:18.577Z,1242.00
2023-04-19T11:34:18.696Z,1243.00
2023-04-19T11:35:18.625Z,1245.00
2023-04-19T11:36:18.726Z,1246.00
2023-04-19T11:37:18.797Z,1245.00
2023-04-19T11:38:18.786Z,1244.00
2023-04-19T11:39:18.804Z,1243.00
2023-04-19T11:40:18.801Z,1243.00
2023-04-19T11:41:18.759Z,1240.00
2023-04-19T11:42:18.794Z,1235.00
2023-04-19T11:43:18.847Z,1234.00
2023-04-19T11:44:19.109Z,1233.00
2023-04-19T11:45:28.686Z,1231.00
2023-04-19T11:46:20.109Z,1227.00
2023-04-19T11:47:19.035Z,1227.00
2023-04-19T11:48:18.990Z,1227.00
2023-04-19T11:49:18.981Z,1224.00
2023-04-19T11:50:18.979Z,1223.00
2023-04-19T11:51:18.974Z,1221.00
2023-04-19T11:52:18.979Z,1225.00
2023-04-19T11:53:18.977Z,1225.00
2023-04-19T11:54:19.122Z,1224.00
2023-04-19T11:55:19.000Z,1223.00
2023-04-19T11:56:18.960Z,1220.00
2023-04-19T11:57:18.944Z,1220.00
2023-04-19T11:58:18.937Z,1221.00
2023-04-19T11:59:18.910Z,1218.00
2023-04-19T12:00:18.930Z,1215.00
2023-04-19T12:01:19.289Z,1217.00
2023-04-19T12:02:19.008Z,1218.00
2023-04-19T12:03:19.047Z,1219.00
2023-04-19T12:04:19.140Z,1218.00
2023-04-19T12:05:19.067Z,1216.00
2023-04-19T12:06:19.289Z,1213.00
2023-04-19T12:07:19.301Z,1213.00
2023-04-19T12:08:18.864Z,1213.00
2023-04-19T12:09:18.855Z,1213.00
2023-04-19T12:10:18.863Z,1212.00
2023-04-19T12:11:19.284Z,1209.00
2023-04-19T12:12:19.305Z,1209.00
2023-04-19T12:13:18.964Z,1211.00
2023-04-19T12:14:19.249Z,1211.00
2023-04-19T12:15:18.980Z,1209.00
2023-04-19T12:16:19.033Z,1210.00
2023-04-19T12:17:19.061Z,1210.00
2023-04-19T12:18:19.029Z,1208.00
2023-04-19T12:19:19.131Z,1210.00
2023-04-19T12:20:19.072Z,1207.00
2023-04-19T12:21:19.180Z,1204.00
2023-04-19T12:22:19.195Z,1203.00
2023-04-19T12:23:19.187Z,1200.00
2023-04-19T12:24:19.194Z,1198.00
2023-04-19T12:25:19.218Z,1198.00
2023-04-19T12:26:19.278Z,1198.00